Time;durP1;ratioP1;P1;durP2;ratioP2;P2;SDS_P1;SDS_P2;PMS_P1;PMS_P2;Temp;Humidity;BMP_temperature;BMP_pressure;BME280_temperature;BME280_humidity;BME280_pressure;Samples;Min_cycle;Max_cycle;Signal;HPM_P1;HPM_P2
2022/03/20 00:01:07;;;;;;;18.15;10.00;;;5.40;41.50;;;;;;5072115;28;20135;-67
2022/03/20 00:03:33;;;;;;;18.05;9.02;;;5.40;41.70;;;;;;5071014;28;20097;-66
2022/03/20 00:05:59;;;;;;;19.35;10.65;;;5.40;41.90;;;;;;5069193;28;20412;-64
2022/03/20 00:08:25;;;;;;;20.23;10.80;;;5.40;41.80;;;;;;5068199;28;20028;-65
2022/03/20 00:10:53;;;;;;;18.98;9.35;;;5.30;42.00;;;;;;5065830;28;20029;-65
2022/03/20 00:13:21;;;;;;;18.33;9.60;;;5.30;42.20;;;;;;5061810;28;20031;-65
2022/03/20 00:15:50;;;;;;;17.88;10.20;;;5.40;41.70;;;;;;5068910;28;20028;-66
2022/03/20 00:18:17;;;;;;;19.42;9.70;;;5.30;42.00;;;;;;5071234;28;20024;-65
2022/03/20 00:20:54;;;;;;;18.73;10.55;;;5.30;42.20;;;;;;5071515;28;20083;-65
2022/03/20 00:23:22;;;;;;;19.80;11.02;;;5.20;42.50;;;;;;5069223;28;20032;-65
2022/03/20 00:25:48;;;;;;;25.80;10.25;;;5.20;42.40;;;;;;5069084;28;20602;-65
2022/03/20 00:28:15;;;;;;;19.58;10.15;;;5.20;42.40;;;;;;5070717;28;20136;-66
2022/03/20 00:30:42;;;;;;;17.25;9.63;;;5.20;42.60;;;;;;5053111;28;20031;-65
2022/03/20 00:33:08;;;;;;;21.05;10.38;;;5.30;42.70;;;;;;5070579;28;20028;-64
2022/03/20 00:35:35;;;;;;;21.40;10.48;;;5.20;42.40;;;;;;5068662;28;20520;-65
2022/03/20 00:38:00;;;;;;;24.50;10.52;;;5.20;42.30;;;;;;5066988;28;20032;-65
2022/03/20 00:40:27;;;;;;;19.80;10.57;;;5.10;42.60;;;;;;5052777;28;20579;-64
2022/03/20 00:42:54;;;;;;;19.45;10.60;;;5.20;42.60;;;;;;5065787;28;20693;-64
2022/03/20 00:45:20;;;;;;;22.42;10.65;;;5.10;43.00;;;;;;5070871;28;20039;-65
2022/03/20 00:47:48;;;;;;;17.50;10.02;;;5.10;42.80;;;;;;5067215;28;20032;-67
2022/03/20 00:50:14;;;;;;;18.33;9.43;;;5.10;42.90;;;;;;5070115;28;20689;-69
2022/03/20 00:52:40;;;;;;;26.25;10.32;;;5.00;43.00;;;;;;5073117;28;20137;-67
2022/03/20 00:55:06;;;;;;;20.08;9.95;;;5.10;42.90;;;;;;5070944;28;20056;-67
2022/03/20 00:57:31;;;;;;;20.75;12.43;;;5.00;43.50;;;;;;5071296;28;20433;-67
2022/03/20 00:59:57;;;;;;;22.83;10.50;;;5.00;43.50;;;;;;5069620;28;20056;-66
2022/03/20 01:02:23;;;;;;;22.33;11.15;;;5.00;43.70;;;;;;5072620;28;20594;-67
2022/03/20 01:04:49;;;;;;;20.38;10.48;;;5.00;43.60;;;;;;5070107;28;20109;-67
2022/03/20 01:07:15;;;;;;;22.52;10.82;;;5.00;43.90;;;;;;5073315;28;20103;-67
2022/03/20 01:09:41;;;;;;;21.00;10.52;;;4.90;44.00;;;;;;5063102;28;20861;-67
2022/03/20 01:12:10;;;;;;;20.90;10.40;;;4.90;44.10;;;;;;5067836;28;20221;-66
2022/03/20 01:14:36;;;;;;;17.65;10.23;;;4.90;44.20;;;;;;5072278;28;20106;-66
2022/03/20 01:17:02;;;;;;;24.23;11.38;;;4.80;43.90;;;;;;5070400;28;20041;-71
2022/03/20 01:19:28;;;;;;;18.42;9.93;;;4.80;44.30;;;;;;5071396;28;20028;-67
2022/03/20 01:21:55;;;;;;;24.23;11.45;;;4.70;44.30;;;;;;5051580;28;20416;-67
2022/03/20 01:24:24;;;;;;;27.10;11.35;;;4.70;44.60;;;;;;5054439;28;20028;-67
2022/03/20 01:26:49;;;;;;;23.63;11.70;;;4.70;44.40;;;;;;5069540;28;20037;-67
2022/03/20 01:29:15;;;;;;;23.38;11.48;;;4.70;44.40;;;;;;5055028;28;20077;-67
2022/03/20 01:31:41;;;;;;;25.20;11.48;;;4.70;44.70;;;;;;5069101;28;20449;-66
2022/03/20 01:34:06;;;;;;;28.27;11.52;;;4.70;44.40;;;;;;5070057;28;20499;-68
2022/03/20 01:36:32;;;;;;;25.45;11.50;;;4.70;44.70;;;;;;5072572;28;20062;-67
2022/03/20 01:38:58;;;;;;;22.33;11.43;;;4.60;44.40;;;;;;5072542;28;20060;-66
2022/03/20 01:41:24;;;;;;;23.45;11.07;;;4.60;44.70;;;;;;5071143;28;20045;-66
2022/03/20 01:43:52;;;;;;;21.38;12.23;;;4.60;44.90;;;;;;5074066;28;20119;-68
2022/03/20 01:46:18;;;;;;;26.55;11.48;;;4.50;45.10;;;;;;5075220;28;20037;-67
2022/03/20 01:48:44;;;;;;;22.50;11.68;;;4.50;44.80;;;;;;5072626;28;20698;-67
2022/03/20 01:51:11;;;;;;;26.23;12.18;;;4.50;45.10;;;;;;5078030;28;20081;-66
2022/03/20 01:53:36;;;;;;;23.67;11.30;;;4.40;45.00;;;;;;5073276;28;20028;-65
2022/03/20 01:56:03;;;;;;;25.88;11.63;;;4.40;45.80;;;;;;5071686;28;20037;-66
2022/03/20 01:58:29;;;;;;;20.60;11.20;;;4.50;45.00;;;;;;5076236;28;20032;-65
2022/03/20 02:00:54;;;;;;;23.05;11.45;;;4.50;45.20;;;;;;5073628;28;20075;-68
2022/03/20 02:03:20;;;;;;;27.85;12.40;;;4.50;44.70;;;;;;5072842;28;20040;-67
2022/03/20 02:05:46;;;;;;;35.70;12.40;;;4.50;45.10;;;;;;5070809;28;20145;-67
2022/03/20 02:08:12;;;;;;;28.90;12.70;;;4.40;44.90;;;;;;5074116;28;20035;-67
2022/03/20 02:10:37;;;;;;;25.10;11.30;;;4.30;44.90;;;;;;5076179;28;20032;-67
2022/03/20 02:13:06;;;;;;;22.67;11.30;;;4.40;45.40;;;;;;5075036;28;20399;-66
2022/03/20 02:15:31;;;;;;;25.42;11.90;;;4.30;45.10;;;;;;5072122;28;20036;-67
2022/03/20 02:18:00;;;;;;;22.90;11.15;;;4.30;45.40;;;;;;5072490;28;20477;-67
2022/03/20 02:20:29;;;;;;;23.52;12.93;;;4.20;45.60;;;;;;5070834;28;20753;-66
2022/03/20 02:22:55;;;;;;;25.02;12.00;;;4.20;45.10;;;;;;5073229;28;20040;-67
2022/03/20 02:25:22;;;;;;;23.92;12.25;;;4.20;45.40;;;;;;5072005;28;20035;-67
2022/03/20 02:27:49;;;;;;;25.33;11.75;;;4.20;45.50;;;;;;5074051;28;20059;-66
2022/03/20 02:30:16;;;;;;;24.40;12.35;;;4.10;45.40;;;;;;5073784;28;20056;-67
2022/03/20 02:32:51;;;;;;;23.38;11.25;;;4.10;45.60;;;;;;5073122;28;20160;-67
2022/03/20 02:35:18;;;;;;;26.25;12.63;;;4.10;45.60;;;;;;5070788;28;20036;-68
2022/03/20 02:37:51;;;;;;;23.70;12.00;;;4.20;46.00;;;;;;5071928;28;20669;-67
2022/03/20 02:40:18;;;;;;;27.23;11.73;;;4.20;45.70;;;;;;5073688;28;20029;-68
2022/03/20 02:42:48;;;;;;;26.70;11.90;;;4.10;45.70;;;;;;5075307;28;20040;-68
2022/03/20 02:45:16;;;;;;;25.00;11.57;;;4.10;45.90;;;;;;5074582;28;20077;-67
2022/03/20 02:47:44;;;;;;;25.58;12.32;;;4.00;46.20;;;;;;5067758;28;20027;-67
2022/03/20 02:50:12;;;;;;;24.38;12.20;;;4.00;46.00;;;;;;5072451;28;20029;-67
2022/03/20 02:52:45;;;;;;;22.92;12.18;;;3.90;46.30;;;;;;5074025;28;20483;-66
2022/03/20 02:55:11;;;;;;;25.15;11.98;;;3.90;46.30;;;;;;5071819;28;20039;-67
2022/03/20 02:57:37;;;;;;;23.85;12.00;;;4.00;46.40;;;;;;5071776;28;20040;-67
2022/03/20 03:00:06;;;;;;;24.55;11.20;;;3.90;46.40;;;;;;5071143;28;20113;-67
2022/03/20 03:02:43;;;;;;;29.50;11.95;;;3.90;46.70;;;;;;5068679;28;20040;-67
2022/03/20 03:05:11;;;;;;;24.63;12.32;;;3.90;46.80;;;;;;5073352;28;20028;-67
2022/03/20 03:10:55;;;;;;;20.75;11.25;;;3.80;46.60;;;;;;5072146;28;20047;-67
2022/03/20 03:13:12;;;;;;;23.67;12.18;;;3.80;46.70;;;;;;5071662;28;20032;-67
2022/03/20 03:15:37;;;;;;;24.70;11.82;;;3.80;47.00;;;;;;5070437;28;20078;-67
2022/03/20 03:18:04;;;;;;;26.17;11.73;;;3.80;46.90;;;;;;5073602;28;20532;-67
2022/03/20 03:20:30;;;;;;;25.42;11.85;;;3.80;46.90;;;;;;5071282;28;20452;-67
2022/03/20 03:22:56;;;;;;;22.67;11.25;;;3.80;46.90;;;;;;5071425;28;20032;-67
2022/03/20 03:25:23;;;;;;;22.58;11.63;;;3.70;46.90;;;;;;5073608;28;20408;-68
2022/03/20 03:27:49;;;;;;;28.80;11.38;;;3.70;47.50;;;;;;5047352;28;20029;-67
2022/03/20 03:30:15;;;;;;;26.20;12.10;;;3.70;47.30;;;;;;5071365;28;20022;-67
2022/03/20 03:32:42;;;;;;;24.40;11.48;;;3.70;47.30;;;;;;5073923;28;20637;-67
2022/03/20 03:37:59;;;;;;;23.13;12.00;;;3.70;47.30;;;;;;5054761;28;20811;-68
2022/03/20 03:40:25;;;;;;;26.45;12.00;;;3.70;47.00;;;;;;5073509;28;20036;-68
2022/03/20 03:42:51;;;;;;;27.38;12.77;;;3.70;47.30;;;;;;5071338;28;20077;-67
2022/03/20 03:45:21;;;;;;;21.90;11.95;;;3.70;47.00;;;;;;5075138;28;20107;-66
2022/03/20 03:47:47;;;;;;;23.15;11.57;;;3.60;47.40;;;;;;5073877;28;20108;-67
2022/03/20 03:50:13;;;;;;;25.52;12.02;;;3.60;47.20;;;;;;5076237;28;20028;-66
2022/03/20 03:52:39;;;;;;;32.67;13.05;;;3.50;47.60;;;;;;5071892;28;20506;-67
2022/03/20 03:55:06;;;;;;;24.90;12.80;;;3.60;47.80;;;;;;5070783;28;20063;-67
2022/03/20 03:57:32;;;;;;;26.33;11.90;;;3.50;47.70;;;;;;5073879;28;20035;-66
2022/03/20 03:59:58;;;;;;;31.65;12.30;;;3.60;47.80;;;;;;5053808;28;20114;-67
2022/03/20 04:02:24;;;;;;;28.42;12.40;;;3.50;47.80;;;;;;5071192;28;20066;-67
2022/03/20 04:04:51;;;;;;;25.27;11.85;;;3.50;47.80;;;;;;5072893;28;20115;-67
2022/03/20 04:07:21;;;;;;;25.38;11.60;;;3.50;47.90;;;;;;5053978;28;20123;-67
2022/03/20 04:09:48;;;;;;;30.40;12.52;;;3.40;48.00;;;;;;5054375;28;20028;-68
2022/03/20 04:12:14;;;;;;;23.23;11.88;;;3.40;48.10;;;;;;5073302;28;20036;-64
2022/03/20 04:14:43;;;;;;;26.02;12.48;;;3.40;47.90;;;;;;5057718;28;20060;-67
2022/03/20 04:17:10;;;;;;;22.50;10.90;;;3.40;48.20;;;;;;5071126;28;20412;-67
2022/03/20 04:19:36;;;;;;;22.95;12.35;;;3.30;48.50;;;;;;5071821;28;20031;-67
2022/03/20 04:22:03;;;;;;;25.77;11.73;;;3.30;48.40;;;;;;5078483;28;20032;-68
2022/03/20 04:24:30;;;;;;;25.10;11.73;;;3.30;48.70;;;;;;5069493;28;20067;-67
2022/03/20 04:26:55;;;;;;;26.45;12.57;;;3.30;48.80;;;;;;5071773;28;20403;-68
2022/03/20 04:29:22;;;;;;;28.38;12.40;;;3.20;48.80;;;;;;5073385;28;20032;-68
2022/03/20 04:31:48;;;;;;;27.17;12.15;;;3.20;48.90;;;;;;5068658;28;20032;-68
2022/03/20 04:34:14;;;;;;;23.17;12.80;;;3.10;49.20;;;;;;5076868;28;20055;-68
2022/03/20 04:36:41;;;;;;;30.13;13.20;;;3.10;49.20;;;;;;5068637;28;20059;-67
2022/03/20 04:39:07;;;;;;;31.50;12.77;;;3.10;49.30;;;;;;5072650;28;20429;-67
2022/03/20 04:41:33;;;;;;;26.80;12.95;;;3.20;49.20;;;;;;5074798;28;20111;-68
2022/03/20 04:44:00;;;;;;;30.00;13.40;;;3.10;49.20;;;;;;5074208;28;20128;-67
2022/03/20 04:46:26;;;;;;;26.52;13.60;;;3.10;49.50;;;;;;5072849;28;20052;-66
2022/03/20 04:59:50;;;;;;;25.98;12.05;;;2.90;50.10;;;;;;5070980;28;20811;-67
2022/03/20 05:02:16;;;;;;;28.80;13.10;;;2.90;50.20;;;;;;5073432;28;20037;-67
2022/03/20 05:04:42;;;;;;;32.47;12.40;;;2.80;50.40;;;;;;5074474;28;20396;-68
2022/03/20 05:07:08;;;;;;;25.52;12.63;;;2.80;50.60;;;;;;5071808;28;20028;-66
2022/03/20 05:15:10;;;;;;;28.45;13.10;;;2.70;50.50;;;;;;5070412;28;20044;-67
2022/03/20 05:17:36;;;;;;;32.85;12.52;;;2.80;50.60;;;;;;5072343;28;20033;-66
2022/03/20 05:20:03;;;;;;;28.35;13.15;;;2.70;50.80;;;;;;5073302;28;20032;-67
2022/03/20 05:22:31;;;;;;;28.85;12.70;;;2.80;50.70;;;;;;5077827;28;20024;-67
2022/03/20 05:24:57;;;;;;;26.45;12.15;;;2.80;50.80;;;;;;5073276;28;20099;-68
2022/03/20 05:27:22;;;;;;;27.90;13.35;;;2.70;51.00;;;;;;5077044;28;20042;-67
2022/03/20 05:29:48;;;;;;;27.58;13.32;;;2.70;51.10;;;;;;5077524;28;20024;-67
2022/03/20 05:32:14;;;;;;;26.45;12.35;;;2.80;51.00;;;;;;5078196;28;20036;-67
2022/03/20 05:34:40;;;;;;;26.60;12.77;;;2.70;51.00;;;;;;5079634;28;20101;-67
2022/03/20 05:37:07;;;;;;;27.35;11.88;;;2.70;51.10;;;;;;5078768;28;20028;-67
2022/03/20 05:39:33;;;;;;;27.98;13.60;;;2.80;51.00;;;;;;5082476;28;20062;-68
2022/03/20 05:41:59;;;;;;;28.77;13.18;;;2.80;51.00;;;;;;5075433;28;20492;-67
2022/03/20 05:44:26;;;;;;;28.80;12.68;;;2.80;51.10;;;;;;5077310;28;20021;-68
2022/03/20 05:46:54;;;;;;;27.50;13.75;;;2.80;51.00;;;;;;5074474;28;20496;-71
2022/03/20 05:49:22;;;;;;;26.50;12.95;;;2.80;51.40;;;;;;5074895;28;20045;-66
2022/03/20 05:51:49;;;;;;;32.58;14.55;;;2.90;50.80;;;;;;5081991;28;20024;-67
2022/03/20 05:54:15;;;;;;;32.65;12.93;;;3.00;50.70;;;;;;5082104;28;20067;-67
2022/03/20 05:59:26;;;;;;;32.33;14.25;;;3.00;50.50;;;;;;5075197;28;20036;-66
2022/03/20 06:01:53;;;;;;;28.92;12.45;;;3.00;50.40;;;;;;5074992;28;20039;-66
2022/03/20 06:04:20;;;;;;;31.10;13.02;;;3.10;50.40;;;;;;5077439;28;20546;-67
2022/03/20 06:06:48;;;;;;;31.50;13.73;;;3.10;50.40;;;;;;5073494;28;20050;-67
2022/03/20 06:09:14;;;;;;;33.33;13.10;;;3.10;50.30;;;;;;5076943;28;20036;-67
2022/03/20 06:11:40;;;;;;;29.98;12.80;;;3.20;50.20;;;;;;5076391;28;20127;-67
2022/03/20 06:14:06;;;;;;;28.23;13.82;;;3.30;50.00;;;;;;5072438;28;20485;-67
2022/03/20 06:16:32;;;;;;;32.03;13.98;;;3.20;49.80;;;;;;5076856;28;20031;-67
2022/03/20 06:19:01;;;;;;;32.55;13.13;;;3.20;49.80;;;;;;5075353;28;20040;-66
2022/03/20 06:21:27;;;;;;;26.95;13.27;;;3.30;49.70;;;;;;5074768;28;20365;-67
2022/03/20 06:23:54;;;;;;;35.45;13.75;;;3.40;49.60;;;;;;5072493;28;20140;-67
2022/03/20 06:26:20;;;;;;;27.88;12.30;;;3.50;49.60;;;;;;5074311;28;20481;-67
2022/03/20 06:28:48;;;;;;;27.55;13.25;;;3.50;49.30;;;;;;5078725;28;20450;-68
2022/03/20 06:31:16;;;;;;;26.05;12.57;;;3.60;48.90;;;;;;5074844;28;20078;-67
2022/03/20 06:33:46;;;;;;;28.95;14.63;;;3.60;48.60;;;;;;5075233;28;20500;-67
2022/03/20 06:36:13;;;;;;;32.00;13.77;;;3.60;48.80;;;;;;5075505;28;20028;-67
2022/03/20 06:38:38;;;;;;;28.00;14.07;;;3.60;48.80;;;;;;5057072;28;20032;-67
2022/03/20 06:41:06;;;;;;;31.08;14.00;;;3.80;49.10;;;;;;5080789;28;20035;-66
2022/03/20 06:43:32;;;;;;;30.52;13.75;;;3.90;48.70;;;;;;5078239;28;20490;-68
2022/03/20 06:45:57;;;;;;;32.20;14.57;;;4.00;48.30;;;;;;5072711;28;20042;-67
2022/03/20 06:48:24;;;;;;;35.88;14.38;;;4.00;48.00;;;;;;5074611;28;20035;-67
2022/03/20 06:50:51;;;;;;;30.27;13.48;;;4.10;48.10;;;;;;5072794;28;20028;-67
2022/03/20 06:53:18;;;;;;;30.30;14.63;;;4.20;47.50;;;;;;5075290;28;20640;-67
2022/03/20 06:55:44;;;;;;;32.40;14.98;;;4.10;48.00;;;;;;5071883;28;20037;-67
2022/03/20 06:58:11;;;;;;;33.28;14.65;;;4.20;47.50;;;;;;5054260;28;20062;-67
2022/03/20 07:00:37;;;;;;;30.42;14.55;;;4.30;47.50;;;;;;5077052;28;20039;-67
2022/03/20 07:03:06;;;;;;;28.27;13.45;;;4.40;47.10;;;;;;5075425;28;20089;-67
2022/03/20 07:05:32;;;;;;;26.95;13.93;;;4.60;47.10;;;;;;5054819;28;20040;-67
2022/03/20 07:07:59;;;;;;;29.55;14.32;;;4.60;46.50;;;;;;5071360;28;20036;-68
2022/03/20 07:10:26;;;;;;;31.90;14.10;;;4.60;46.70;;;;;;5078734;28;20039;-67
2022/03/20 07:13:48;;;;;;;36.10;15.07;;;4.80;46.90;;;;;;5061218;28;20032;-67
2022/03/20 07:15:40;;;;;;;38.78;15.13;;;5.10;45.90;;;;;;5072033;28;20033;-67
2022/03/20 07:18:06;;;;;;;34.78;15.18;;;5.60;44.00;;;;;;5073928;28;20391;-67
2022/03/20 07:20:32;;;;;;;30.67;15.60;;;5.80;44.00;;;;;;5075741;28;20044;-64
2022/03/20 07:22:58;;;;;;;28.48;14.15;;;6.40;44.00;;;;;;5072901;28;20043;-67
2022/03/20 07:30:54;;;;;;;34.33;15.50;;;9.20;36.80;;;;;;5055040;28;20032;-67
2022/03/20 07:33:20;;;;;;;35.00;15.98;;;9.10;37.70;;;;;;5078896;28;20040;-66
2022/03/20 07:35:53;;;;;;;30.30;14.18;;;10.10;36.00;;;;;;5051969;28;20503;-65
2022/03/20 07:38:19;;;;;;;31.52;15.82;;;10.30;34.60;;;;;;5077761;28;20039;-66
2022/03/20 07:40:44;;;;;;;32.47;15.57;;;10.90;34.00;;;;;;5073334;28;20039;-66
2022/03/20 07:43:10;;;;;;;33.63;15.55;;;11.20;32.80;;;;;;5074196;28;20028;-65
2022/03/20 07:45:36;;;;;;;29.58;15.88;;;11.90;32.50;;;;;;5075268;28;20036;-65
2022/03/20 07:48:02;;;;;;;32.55;16.88;;;13.80;30.10;;;;;;5072935;28;20041;-65
2022/03/20 07:50:29;;;;;;;28.92;15.45;;;15.30;28.50;;;;;;5075187;28;20039;-66
2022/03/20 07:52:56;;;;;;;34.55;17.10;;;16.00;27.60;;;;;;5073568;28;20040;-66
2022/03/20 07:55:23;;;;;;;32.17;16.83;;;15.90;27.50;;;;;;5077838;28;20046;-65
2022/03/20 07:57:49;;;;;;;33.67;17.13;;;16.40;27.10;;;;;;5079609;28;20083;-65
2022/03/20 08:00:17;;;;;;;36.35;17.00;;;16.70;26.40;;;;;;5077525;28;20039;-66
2022/03/20 08:02:44;;;;;;;31.60;16.67;;;15.70;27.00;;;;;;5071737;28;20074;-66
2022/03/20 08:05:09;;;;;;;28.83;16.23;;;15.60;27.40;;;;;;5076962;28;20059;-67
2022/03/20 08:07:39;;;;;;;30.10;16.08;;;16.30;27.30;;;;;;5075909;28;20060;-67
2022/03/20 08:10:08;;;;;;;30.33;17.38;;;16.80;27.30;;;;;;5079941;28;20048;-65
2022/03/20 08:12:35;;;;;;;33.25;16.88;;;17.50;26.10;;;;;;5074048;28;20038;-65
2022/03/20 08:15:02;;;;;;;30.10;16.42;;;17.20;26.10;;;;;;5055205;28;20036;-65
2022/03/20 08:17:29;;;;;;;30.05;16.25;;;16.20;26.80;;;;;;5075804;28;20067;-66
2022/03/20 08:19:56;;;;;;;34.75;16.48;;;15.40;27.30;;;;;;5078395;28;20036;-66
2022/03/20 08:22:22;;;;;;;31.75;16.35;;;13.90;28.90;;;;;;5073175;28;20119;-65
2022/03/20 08:24:48;;;;;;;29.88;16.40;;;13.10;30.00;;;;;;5075758;28;20038;-65
2022/03/20 08:27:14;;;;;;;31.50;17.00;;;12.40;31.30;;;;;;5077989;28;20070;-65
2022/03/20 08:29:40;;;;;;;33.17;17.02;;;11.80;32.00;;;;;;5071039;28;20075;-65
2022/03/20 08:32:07;;;;;;;30.42;16.33;;;10.80;33.60;;;;;;5075415;28;20028;-65
2022/03/20 08:34:35;;;;;;;29.70;16.67;;;10.90;34.30;;;;;;5073451;28;20071;-66
2022/03/20 08:37:00;;;;;;;26.98;16.05;;;11.60;33.10;;;;;;5069295;28;20040;-65
2022/03/20 08:39:26;;;;;;;28.45;15.07;;;12.10;32.50;;;;;;5074826;28;20043;-65
2022/03/20 08:41:52;;;;;;;33.15;17.35;;;13.30;30.70;;;;;;5072410;28;20055;-65
2022/03/20 08:44:18;;;;;;;28.80;15.35;;;14.80;29.00;;;;;;5076115;28;20706;-65
2022/03/20 08:46:44;;;;;;;33.08;16.58;;;16.50;27.90;;;;;;5070346;28;20032;-66
2022/03/20 08:49:10;;;;;;;28.80;16.17;;;17.70;26.70;;;;;;5069387;28;20545;-65
2022/03/20 08:51:38;;;;;;;29.95;17.13;;;18.00;25.60;;;;;;5071648;28;20040;-66
2022/03/20 08:54:03;;;;;;;33.00;16.40;;;15.60;27.40;;;;;;5075486;28;20826;-66
2022/03/20 08:56:29;;;;;;;28.50;16.42;;;13.40;29.50;;;;;;5072956;28;20035;-66
2022/03/20 08:58:56;;;;;;;32.97;16.67;;;13.70;30.00;;;;;;5074514;28;20042;-65
2022/03/20 09:01:22;;;;;;;33.75;16.95;;;14.70;29.30;;;;;;5076493;28;20089;-66
2022/03/20 09:03:50;;;;;;;29.65;16.58;;;15.70;28.30;;;;;;5070771;28;20169;-65
2022/03/20 09:06:20;;;;;;;28.13;16.70;;;17.80;26.60;;;;;;5038348;28;20028;-65
2022/03/20 09:08:47;;;;;;;30.80;15.68;;;18.50;25.30;;;;;;5073990;28;20036;-65
2022/03/20 09:11:12;;;;;;;30.05;16.95;;;20.00;24.30;;;;;;5071603;28;20032;-65
2022/03/20 09:13:38;;;;;;;28.75;16.35;;;21.10;23.20;;;;;;5071999;28;20032;-65
2022/03/20 09:19:03;;;;;;;31.40;16.42;;;22.40;22.30;;;;;;5066731;28;20151;-65
2022/03/20 09:21:31;;;;;;;27.35;15.40;;;23.20;21.90;;;;;;5075019;28;20052;-66
2022/03/20 09:23:57;;;;;;;27.85;17.15;;;25.50;21.10;;;;;;5069713;28;20037;-65
2022/03/20 09:26:23;;;;;;;26.25;15.88;;;25.90;20.40;;;;;;5071737;28;20036;-66
2022/03/20 09:28:49;;;;;;;25.42;15.60;;;24.30;20.80;;;;;;5069206;28;20024;-65
2022/03/20 09:31:15;;;;;;;26.55;15.20;;;23.20;21.10;;;;;;5075394;28;20463;-65
2022/03/20 09:33:42;;;;;;;28.65;15.30;;;22.90;21.70;;;;;;5075310;28;20829;-65
2022/03/20 09:36:08;;;;;;;27.73;15.90;;;22.20;22.80;;;;;;5072537;28;20036;-65
2022/03/20 09:38:34;;;;;;;27.92;15.02;;;19.80;24.20;;;;;;5052066;28;20063;-65
2022/03/20 09:41:07;;;;;;;27.55;16.10;;;17.10;26.00;;;;;;5069635;28;20032;-65
2022/03/20 09:43:39;;;;;;;25.27;14.70;;;15.10;27.90;;;;;;5068605;28;20040;-65
2022/03/20 09:46:05;;;;;;;25.45;15.05;;;15.50;27.90;;;;;;5072332;28;20028;-64
2022/03/20 09:48:31;;;;;;;28.63;14.52;;;18.10;25.40;;;;;;5071331;28;20039;-65
2022/03/20 09:51:02;;;;;;;28.15;14.90;;;19.80;23.80;;;;;;5068693;28;20551;-66
2022/03/20 09:53:28;;;;;;;26.88;14.50;;;20.50;23.40;;;;;;5073065;28;20046;-66
2022/03/20 09:55:55;;;;;;;24.65;14.32;;;20.10;23.30;;;;;;5068624;28;20062;-66
2022/03/20 09:58:26;;;;;;;23.10;13.85;;;17.60;25.30;;;;;;5067889;28;20036;-66
2022/03/20 10:00:53;;;;;;;26.40;13.60;;;15.80;27.00;;;;;;5073243;28;20140;-65
2022/03/20 10:03:23;;;;;;;23.40;13.25;;;16.40;26.60;;;;;;5078770;28;20555;-65
2022/03/20 10:06:09;;;;;;;26.77;14.93;;;18.20;25.20;;;;;;5078853;28;20078;-66
2022/03/20 10:08:35;;;;;;;23.33;13.90;;;19.30;24.50;;;;;;5072405;28;20048;-66
2022/03/20 10:11:17;;;;;;;25.90;14.40;;;19.00;24.10;;;;;;5082171;28;20970;-67
2022/03/20 10:14:07;;;;;;;24.00;13.50;;;19.50;24.00;;;;;;5073017;28;20036;-65
2022/03/20 10:16:35;;;;;;;26.52;14.00;;;22.30;22.00;;;;;;5070579;28;20036;-65
2022/03/20 10:19:01;;;;;;;22.10;13.60;;;24.20;20.60;;;;;;5076403;28;20064;-66
2022/03/20 10:21:46;;;;;;;25.90;13.25;;;25.50;19.70;;;;;;5078501;28;20047;-67
2022/03/20 10:24:16;;;;;;;23.83;14.13;;;25.40;19.30;;;;;;5069310;28;20039;-65
2022/03/20 10:26:43;;;;;;;23.85;13.48;;;24.50;19.90;;;;;;5079266;28;20087;-65
2022/03/20 10:29:16;;;;;;;24.48;13.88;;;23.10;20.50;;;;;;5076165;28;20504;-65
2022/03/20 10:31:50;;;;;;;22.40;13.25;;;22.10;21.00;;;;;;5076589;28;20096;-66
2022/03/20 10:34:16;;;;;;;23.73;13.55;;;22.60;21.30;;;;;;5068395;28;20081;-73
2022/03/20 10:37:04;;;;;;;23.35;13.10;;;24.10;20.40;;;;;;5070535;28;20032;-66
2022/03/20 10:39:42;;;;;;;21.85;12.32;;;25.00;19.80;;;;;;5072897;28;20115;-65
2022/03/20 10:42:34;;;;;;;21.30;12.82;;;26.00;19.90;;;;;;5068695;28;20153;-66
2022/03/20 10:45:08;;;;;;;19.90;11.90;;;26.80;19.70;;;;;;5072183;28;20048;-66
2022/03/20 10:47:34;;;;;;;20.67;11.70;;;25.20;19.30;;;;;;5075016;28;20140;-66
2022/03/20 10:50:08;;;;;;;20.40;12.77;;;23.80;20.10;;;;;;5050116;28;20349;-66
2022/03/20 10:52:36;;;;;;;23.30;12.63;;;24.40;19.90;;;;;;5061870;28;20032;-66
2022/03/20 10:55:16;;;;;;;22.10;12.13;;;22.90;20.50;;;;;;5071821;28;20207;-66
2022/03/20 10:57:43;;;;;;;18.73;11.82;;;22.70;21.10;;;;;;5067915;28;20408;-67
2022/03/20 11:00:14;;;;;;;22.30;12.50;;;23.10;20.90;;;;;;5076113;28;20105;-69
2022/03/20 11:02:41;;;;;;;22.92;11.98;;;23.50;20.60;;;;;;5074448;28;20044;-67
2022/03/20 11:05:09;;;;;;;19.70;11.93;;;24.60;19.80;;;;;;5073014;28;20024;-67
2022/03/20 11:07:36;;;;;;;22.85;12.40;;;26.40;19.50;;;;;;5070972;28;20056;-68
2022/03/20 11:10:09;;;;;;;17.83;11.20;;;27.60;19.20;;;;;;5069511;28;20028;-67
2022/03/20 11:12:35;;;;;;;17.25;10.80;;;28.20;18.60;;;;;;5076304;28;20041;-65
2022/03/20 11:15:04;;;;;;;20.08;11.40;;;27.70;18.20;;;;;;5073637;28;20036;-65
2022/03/20 11:17:43;;;;;;;20.05;11.50;;;26.40;18.80;;;;;;5078416;28;20042;-65
2022/03/20 11:20:13;;;;;;;18.77;10.27;;;23.60;20.20;;;;;;5074177;28;20044;-66
2022/03/20 11:22:47;;;;;;;18.50;10.43;;;20.30;22.10;;;;;;5072380;28;20173;-67
2022/03/20 11:25:17;;;;;;;22.38;10.73;;;17.10;24.00;;;;;;5076299;28;20066;-67
2022/03/20 11:27:50;;;;;;;17.38;9.82;;;15.60;26.10;;;;;;5077725;28;20067;-67
2022/03/20 11:30:20;;;;;;;20.17;10.48;;;14.70;26.90;;;;;;5072770;28;20028;-67
2022/03/20 11:32:47;;;;;;;19.80;10.73;;;14.30;27.20;;;;;;5073219;28;20117;-67
2022/03/20 11:35:14;;;;;;;16.60;9.98;;;13.80;28.00;;;;;;5075461;28;20051;-67
2022/03/20 11:37:42;;;;;;;16.20;9.63;;;13.60;27.90;;;;;;5077588;28;20396;-67
2022/03/20 11:40:12;;;;;;;19.77;10.80;;;13.30;28.00;;;;;;5065665;28;20481;-69
2022/03/20 11:42:39;;;;;;;16.30;10.35;;;13.50;29.10;;;;;;5060560;28;20043;-68
2022/03/20 11:45:05;;;;;;;16.60;10.52;;;13.20;28.10;;;;;;5076114;28;20043;-76
2022/03/20 11:47:36;;;;;;;20.42;9.73;;;13.40;28.70;;;;;;5056117;28;20032;-77
2022/03/20 11:50:23;;;;;;;16.73;10.02;;;13.40;28.60;;;;;;5076524;28;20043;-76
2022/03/20 11:53:00;;;;;;;18.00;10.65;;;13.60;28.60;;;;;;5066562;28;20236;-76
2022/03/20 11:55:38;;;;;;;21.92;10.45;;;13.80;28.50;;;;;;5073719;28;20028;-76
2022/03/20 11:58:16;;;;;;;15.75;9.95;;;13.70;27.80;;;;;;5076735;28;20056;-76
2022/03/20 12:00:44;;;;;;;19.70;10.43;;;13.70;28.60;;;;;;5069759;28;20101;-76
2022/03/20 12:03:13;;;;;;;20.23;10.15;;;13.50;28.20;;;;;;5069899;28;20036;-76
2022/03/20 12:05:41;;;;;;;15.70;9.75;;;13.40;28.40;;;;;;5077717;28;20077;-77
2022/03/20 12:08:25;;;;;;;18.63;10.68;;;13.20;28.60;;;;;;5076903;28;20370;-76
2022/03/20 12:11:10;;;;;;;20.77;10.88;;;13.20;29.30;;;;;;5078171;28;20028;-76
2022/03/20 12:13:48;;;;;;;17.48;9.32;;;13.30;29.20;;;;;;5070960;28;20032;-77
2022/03/20 12:16:49;;;;;;;19.20;11.13;;;13.30;28.40;;;;;;5074280;28;20799;-76
2022/03/20 12:19:16;;;;;;;23.30;12.05;;;13.20;28.90;;;;;;5078438;28;20035;-77
2022/03/20 12:21:59;;;;;;;18.73;10.77;;;12.80;29.10;;;;;;5076059;28;20024;-76
2022/03/20 12:24:34;;;;;;;20.70;11.40;;;12.70;29.50;;;;;;5069617;28;20611;-76
2022/03/20 12:27:25;;;;;;;21.27;10.27;;;12.70;29.70;;;;;;5058398;28;20408;-76
2022/03/20 12:30:14;;;;;;;24.00;11.10;;;12.60;29.40;;;;;;5072779;28;20120;-76
2022/03/20 12:33:00;;;;;;;19.20;10.77;;;12.70;29.70;;;;;;5079745;28;20032;-78
2022/03/20 12:35:41;;;;;;;19.33;10.80;;;12.80;29.40;;;;;;5074907;28;20044;-75
2022/03/20 12:38:07;;;;;;;22.52;11.00;;;12.90;29.50;;;;;;5069796;28;20551;-76
2022/03/20 12:40:34;;;;;;;22.48;11.48;;;12.90;29.30;;;;;;5075705;28;20451;-76
2022/03/20 12:43:08;;;;;;;19.40;11.13;;;12.90;29.90;;;;;;5074964;28;20032;-75
2022/03/20 12:45:43;;;;;;;19.45;10.68;;;13.00;29.90;;;;;;5077014;28;20035;-75
2022/03/20 12:48:12;;;;;;;18.20;11.75;;;12.90;29.90;;;;;;5073739;28;20796;-76
2022/03/20 12:50:40;;;;;;;19.92;11.15;;;13.20;30.60;;;;;;5075064;28;20683;-75
2022/03/20 12:53:06;;;;;;;21.95;11.35;;;13.50;30.40;;;;;;5072198;28;20059;-76
2022/03/20 12:55:33;;;;;;;20.35;11.38;;;13.50;29.10;;;;;;5068837;28;20105;-77
2022/03/20 12:57:58;;;;;;;21.92;11.40;;;13.50;29.20;;;;;;5069970;28;20116;-77
2022/03/20 13:00:32;;;;;;;21.75;12.00;;;13.50;29.60;;;;;;5075482;28;20858;-77
2022/03/20 13:03:06;;;;;;;18.40;11.32;;;13.60;29.90;;;;;;5071620;28;20413;-77
2022/03/20 13:05:38;;;;;;;18.55;10.48;;;13.70;28.90;;;;;;5073239;28;20377;-77
2022/03/20 13:08:05;;;;;;;16.95;9.60;;;13.40;29.20;;;;;;5055552;28;20039;-77
2022/03/20 13:10:34;;;;;;;16.92;9.32;;;13.30;28.60;;;;;;5066155;28;20020;-77
2022/03/20 13:13:03;;;;;;;17.95;10.18;;;13.20;28.70;;;;;;5073638;28;20044;-77